Time;durP1;ratioP1;P1;durP2;ratioP2;P2;SDS_P1;SDS_P2;PMS_P1;PMS_P2;Temp;Humidity;BMP_temperature;BMP_pressure;BME280_temperature;BME280_humidity;BME280_pressure;Samples;Min_cycle;Max_cycle;Signal;HPM_P1;HPM_P2
2022/08/26 00:01:43;;;;;;;1.50;0.90;;;24.90;79.40;;;;;;6106790;23;20450;-76
2022/08/26 00:04:12;;;;;;;1.43;0.90;;;24.80;80.00;;;;;;6121805;23;20441;-79
2022/08/26 00:06:40;;;;;;;1.50;0.90;;;24.80;80.10;;;;;;6102725;23;20503;-77
2022/08/26 00:09:08;;;;;;;1.50;0.90;;;24.80;80.80;;;;;;6118726;23;20426;-77
2022/08/26 00:11:35;;;;;;;1.47;0.80;;;24.70;81.90;;;;;;6105636;23;20456;-78
2022/08/26 00:14:02;;;;;;;1.47;0.90;;;24.70;82.90;;;;;;6121593;23;20450;-77
2022/08/26 00:16:30;;;;;;;1.43;0.90;;;24.60;82.60;;;;;;6113265;23;20445;-78
2022/08/26 00:18:57;;;;;;;1.43;0.90;;;24.50;82.30;;;;;;6121808;23;20458;-77
2022/08/26 00:21:25;;;;;;;1.40;0.90;;;24.40;82.20;;;;;;6107362;23;20461;-78
2022/08/26 00:23:53;;;;;;;1.47;0.80;;;24.40;82.40;;;;;;6121252;23;20442;-76
2022/08/26 00:26:19;;;;;;;1.43;0.90;;;24.30;82.10;;;;;;6107007;23;20458;-78
2022/08/26 00:28:46;;;;;;;1.47;0.90;;;24.30;82.50;;;;;;6121000;23;20508;-78
2022/08/26 00:31:13;;;;;;;1.47;0.90;;;24.30;82.70;;;;;;6106869;23;20460;-79
2022/08/26 00:33:41;;;;;;;1.43;0.80;;;24.20;83.20;;;;;;6120562;23;20481;-79
2022/08/26 00:36:08;;;;;;;1.47;0.83;;;24.20;82.90;;;;;;6107149;23;20446;-78
2022/08/26 00:38:38;;;;;;;1.50;0.90;;;24.10;85.20;;;;;;6120785;23;20442;-78
2022/08/26 00:41:05;;;;;;;1.40;0.80;;;24.10;84.90;;;;;;6105374;23;20421;-77
2022/08/26 00:43:35;;;;;;;1.50;0.90;;;24.00;86.30;;;;;;6121971;23;20442;-77
2022/08/26 00:46:07;;;;;;;1.43;0.90;;;24.00;87.30;;;;;;6107309;23;20476;-78
2022/08/26 00:48:35;;;;;;;1.43;0.90;;;23.90;88.10;;;;;;6120668;23;20533;-79
2022/08/26 00:51:06;;;;;;;1.50;0.90;;;23.90;90.10;;;;;;6107377;23;20429;-77
2022/08/26 00:53:41;;;;;;;1.50;0.90;;;23.80;90.70;;;;;;6121602;23;20445;-78
2022/08/26 00:56:13;;;;;;;1.43;0.90;;;23.80;90.50;;;;;;6131448;23;20425;-78
2022/08/26 00:58:41;;;;;;;1.40;0.90;;;23.70;91.90;;;;;;6123923;23;20406;-77
2022/08/26 01:01:08;;;;;;;1.43;0.90;;;23.70;91.70;;;;;;6109090;23;20449;-77
2022/08/26 01:03:39;;;;;;;1.50;0.90;;;23.70;92.30;;;;;;6121960;23;20776;-77
2022/08/26 01:06:07;;;;;;;1.47;0.90;;;23.70;92.80;;;;;;6107687;23;20436;-77
2022/08/26 01:08:34;;;;;;;1.43;0.90;;;23.70;93.80;;;;;;6130187;23;20453;-76
2022/08/26 01:11:03;;;;;;;1.47;0.90;;;23.70;93.70;;;;;;6096111;23;20425;-77
2022/08/26 01:13:31;;;;;;;1.50;0.80;;;23.60;94.80;;;;;;6121305;23;20437;-79
2022/08/26 01:16:02;;;;;;;1.43;0.90;;;23.60;95.20;;;;;;6108196;23;20467;-76
2022/08/26 01:18:30;;;;;;;1.40;0.90;;;23.60;95.90;;;;;;6121461;23;20404;-78
2022/08/26 01:21:01;;;;;;;1.50;1.00;;;23.60;95.80;;;;;;6107585;23;20425;-77
2022/08/26 01:23:34;;;;;;;1.47;0.90;;;23.50;96.30;;;;;;6121535;23;21149;-78
2022/08/26 01:26:07;;;;;;;1.47;0.90;;;23.50;96.50;;;;;;6107980;23;20402;-75
2022/08/26 01:28:35;;;;;;;1.47;0.90;;;23.50;97.30;;;;;;6120278;23;20430;-77
2022/08/26 01:31:05;;;;;;;1.43;0.87;;;23.40;97.80;;;;;;6121981;23;20429;-77
2022/08/26 01:33:37;;;;;;;1.40;0.90;;;23.40;97.50;;;;;;6122346;23;20552;-79
2022/08/26 01:36:06;;;;;;;1.47;0.90;;;23.30;97.80;;;;;;6118609;23;20402;-75
2022/08/26 01:38:34;;;;;;;1.80;1.00;;;23.30;98.20;;;;;;6124748;23;20418;-80
2022/08/26 01:41:03;;;;;;;1.47;0.90;;;23.30;98.20;;;;;;6122804;23;20422;-77
2022/08/26 01:43:32;;;;;;;1.50;0.90;;;23.30;97.90;;;;;;6123851;23;20442;-77
2022/08/26 01:46:00;;;;;;;1.50;0.90;;;23.20;98.10;;;;;;6117362;23;20453;-78
2022/08/26 01:48:31;;;;;;;1.50;1.10;;;23.20;98.20;;;;;;6122280;23;20450;-80
2022/08/26 01:51:00;;;;;;;1.50;1.00;;;23.20;98.20;;;;;;6108929;23;20428;-78
2022/08/26 01:53:27;;;;;;;1.50;0.90;;;23.20;98.20;;;;;;6122358;23;21032;-77
2022/08/26 01:56:00;;;;;;;1.47;0.90;;;23.20;98.20;;;;;;6108462;23;20426;-78
2022/08/26 01:58:32;;;;;;;1.50;0.90;;;23.20;98.20;;;;;;6122356;23;20410;-78
2022/08/26 02:01:00;;;;;;;1.47;0.90;;;23.10;98.10;;;;;;6109450;23;20402;-79
2022/08/26 02:03:29;;;;;;;1.47;0.90;;;23.10;98.20;;;;;;6122327;23;20533;-79
2022/08/26 02:05:59;;;;;;;1.60;1.20;;;23.10;98.20;;;;;;6105916;23;20421;-79
2022/08/26 02:08:30;;;;;;;1.47;0.90;;;23.10;98.20;;;;;;6121106;23;20449;-78
2022/08/26 02:10:59;;;;;;;1.50;0.90;;;23.00;98.20;;;;;;6108406;23;20557;-76
2022/08/26 02:13:29;;;;;;;1.47;0.90;;;23.00;98.20;;;;;;6122505;23;20437;-78
2022/08/26 02:15:57;;;;;;;1.47;0.90;;;23.00;98.20;;;;;;6108519;23;21051;-79
2022/08/26 02:18:25;;;;;;;1.47;0.90;;;22.90;98.20;;;;;;6122677;23;20782;-77
2022/08/26 02:20:54;;;;;;;1.50;0.90;;;22.90;98.20;;;;;;6123441;23;20421;-77
2022/08/26 02:23:21;;;;;;;2.13;1.93;;;22.80;98.20;;;;;;6122697;23;20452;-79
2022/08/26 02:25:53;;;;;;;1.50;0.90;;;22.80;98.20;;;;;;6108294;23;20812;-77
2022/08/26 02:28:22;;;;;;;1.43;0.87;;;22.80;98.20;;;;;;6121337;23;20446;-76
2022/08/26 02:30:49;;;;;;;1.50;1.10;;;22.80;98.20;;;;;;6134927;23;20422;-79
2022/08/26 02:33:16;;;;;;;1.47;0.90;;;22.80;98.20;;;;;;6122091;23;20482;-79
2022/08/26 02:35:44;;;;;;;1.43;0.90;;;22.80;98.20;;;;;;6122209;23;20421;-78
2022/08/26 02:38:11;;;;;;;1.43;0.90;;;22.70;98.20;;;;;;6104252;23;20501;-79
2022/08/26 02:40:40;;;;;;;1.47;0.97;;;22.80;98.20;;;;;;6124262;23;20422;-79
2022/08/26 02:43:08;;;;;;;1.50;0.90;;;22.70;98.20;;;;;;6106680;23;20464;-77
2022/08/26 02:45:36;;;;;;;1.50;1.00;;;22.70;98.20;;;;;;6123309;23;20501;-79
2022/08/26 02:48:09;;;;;;;1.50;0.90;;;22.70;98.20;;;;;;6107816;23;20445;-78
2022/08/26 02:50:36;;;;;;;1.43;0.87;;;22.60;98.20;;;;;;6123522;23;20452;-79
2022/08/26 02:53:03;;;;;;;1.50;1.20;;;22.60;98.20;;;;;;6122766;23;20849;-79
2022/08/26 02:55:30;;;;;;;1.50;0.87;;;22.60;98.20;;;;;;6132323;23;20425;-79
2022/08/26 02:57:58;;;;;;;1.60;1.20;;;22.60;98.20;;;;;;6107252;23;20953;-78
2022/08/26 03:00:26;;;;;;;1.43;0.90;;;22.60;98.20;;;;;;6123205;23;20457;-79
2022/08/26 03:02:54;;;;;;;1.43;0.90;;;22.60;98.20;;;;;;6106555;23;20786;-80
2022/08/26 03:05:22;;;;;;;1.43;0.90;;;22.60;98.20;;;;;;6131776;23;20961;-78
2022/08/26 03:07:49;;;;;;;1.50;0.90;;;22.60;98.20;;;;;;6106208;23;20449;-78
2022/08/26 03:10:17;;;;;;;1.50;0.90;;;22.50;98.20;;;;;;6122692;23;20445;-79
2022/08/26 03:12:45;;;;;;;2.93;1.40;;;22.50;98.20;;;;;;6122112;23;21032;-78
2022/08/26 03:15:13;;;;;;;1.43;0.90;;;22.50;98.20;;;;;;6121954;23;20426;-79
2022/08/26 03:17:40;;;;;;;1.47;0.90;;;22.50;98.20;;;;;;6109410;23;20445;-77
2022/08/26 03:20:10;;;;;;;1.43;0.90;;;22.50;98.20;;;;;;6120939;23;20436;-78
2022/08/26 03:22:39;;;;;;;1.47;0.90;;;22.50;98.20;;;;;;6122604;23;20445;-79
2022/08/26 03:25:09;;;;;;;1.47;0.90;;;22.40;98.20;;;;;;6121728;23;20925;-78
2022/08/26 03:27:36;;;;;;;1.47;0.80;;;22.50;98.20;;;;;;6106623;23;20473;-78
2022/08/26 03:32:49;;;;;;;1.43;0.90;;;22.50;98.20;;;;;;6105886;23;20916;-77
2022/08/26 03:35:18;;;;;;;1.47;0.90;;;22.60;98.20;;;;;;6120738;23;20429;-79
2022/08/26 03:37:45;;;;;;;1.50;0.90;;;22.60;98.20;;;;;;6121708;23;20448;-76
2022/08/26 03:40:12;;;;;;;1.47;0.90;;;22.60;98.20;;;;;;6121812;23;20429;-77
2022/08/26 03:42:40;;;;;;;1.43;0.90;;;22.60;98.20;;;;;;6107791;23;20465;-77
2022/08/26 03:45:10;;;;;;;1.43;0.90;;;22.60;98.20;;;;;;6131676;23;20426;-78
2022/08/26 03:47:38;;;;;;;1.50;0.90;;;22.60;98.20;;;;;;6106341;23;20917;-77
2022/08/26 03:50:06;;;;;;;1.47;0.97;;;22.60;98.20;;;;;;6130492;23;20481;-79
2022/08/26 03:52:35;;;;;;;1.47;0.90;;;22.60;98.20;;;;;;6105624;23;20523;-79
2022/08/26 03:55:03;;;;;;;1.50;0.90;;;22.60;98.20;;;;;;6122440;23;20758;-79
2022/08/26 03:57:30;;;;;;;1.43;0.90;;;22.60;98.20;;;;;;6105097;23;20446;-78
2022/08/26 03:59:57;;;;;;;1.47;0.90;;;22.60;98.20;;;;;;6122665;23;20422;-78
2022/08/26 04:02:24;;;;;;;1.43;0.90;;;22.60;98.20;;;;;;6108692;23;20454;-78
2022/08/26 04:04:51;;;;;;;1.47;0.90;;;22.70;98.20;;;;;;6120417;23;20433;-78
2022/08/26 04:07:18;;;;;;;1.43;0.90;;;22.70;98.20;;;;;;6107766;23;20512;-78
2022/08/26 04:09:47;;;;;;;1.50;1.20;;;22.80;98.20;;;;;;6123528;23;20502;-77
2022/08/26 04:12:15;;;;;;;1.47;0.90;;;22.70;98.20;;;;;;6109087;23;20450;-78
2022/08/26 04:14:42;;;;;;;1.47;0.90;;;22.70;98.20;;;;;;6122644;23;20429;-76
2022/08/26 04:17:09;;;;;;;1.43;0.90;;;22.70;98.20;;;;;;6106043;23;20484;-80
2022/08/26 04:19:36;;;;;;;1.50;0.90;;;22.70;98.20;;;;;;6131141;23;20480;-77
2022/08/26 04:22:09;;;;;;;1.50;0.90;;;22.70;98.20;;;;;;6106661;23;20508;-77
2022/08/26 04:24:38;;;;;;;1.50;1.00;;;22.70;98.20;;;;;;6121200;23;20488;-78
2022/08/26 04:27:07;;;;;;;1.43;0.90;;;22.70;98.20;;;;;;6106765;23;20564;-77
2022/08/26 04:29:34;;;;;;;1.43;0.90;;;22.70;98.20;;;;;;6121848;23;20948;-78
2022/08/26 04:32:02;;;;;;;1.47;0.90;;;22.70;98.20;;;;;;6106059;23;20509;-78
2022/08/26 04:34:29;;;;;;;1.43;0.90;;;22.60;98.20;;;;;;6122571;23;20485;-75
2022/08/26 04:36:57;;;;;;;1.50;0.90;;;22.60;98.20;;;;;;6107504;23;20449;-77
2022/08/26 04:39:24;;;;;;;1.60;1.00;;;22.60;98.20;;;;;;6123951;23;20476;-77
2022/08/26 04:41:53;;;;;;;1.47;0.90;;;22.60;98.20;;;;;;6134767;23;20418;-78
2022/08/26 04:44:24;;;;;;;1.40;0.90;;;22.60;98.20;;;;;;6151110;23;20480;-76
2022/08/26 04:46:51;;;;;;;1.43;0.90;;;22.60;98.20;;;;;;6116322;23;20457;-78
2022/08/26 04:49:19;;;;;;;1.43;0.90;;;22.60;98.20;;;;;;6135381;23;20533;-77
2022/08/26 04:51:47;;;;;;;1.40;0.90;;;22.70;98.20;;;;;;6115994;23;20461;-78
2022/08/26 04:54:15;;;;;;;1.43;0.90;;;22.60;98.20;;;;;;6129361;23;20906;-76
2022/08/26 04:56:45;;;;;;;1.43;0.90;;;22.60;98.20;;;;;;6107474;23;20450;-79
2022/08/26 04:59:14;;;;;;;1.50;0.90;;;22.60;98.20;;;;;;6123068;23;20428;-80
2022/08/26 05:01:45;;;;;;;1.40;0.80;;;22.50;98.20;;;;;;6107544;23;20449;-77
2022/08/26 05:04:12;;;;;;;1.47;0.90;;;22.60;98.20;;;;;;6121246;23;20441;-77
2022/08/26 05:06:40;;;;;;;1.47;0.90;;;22.60;98.20;;;;;;6106410;23;20839;-77
2022/08/26 05:09:07;;;;;;;1.43;0.90;;;22.60;98.20;;;;;;6121571;23;20453;-77
2022/08/26 05:11:34;;;;;;;1.90;1.30;;;22.70;98.20;;;;;;6108691;23;20473;-78
2022/08/26 05:14:04;;;;;;;1.47;0.80;;;22.60;98.20;;;;;;6121792;23;20949;-77
2022/08/26 05:16:32;;;;;;;1.50;0.90;;;22.60;98.20;;;;;;6113601;23;20453;-79
2022/08/26 05:19:02;;;;;;;1.43;0.90;;;22.50;98.20;;;;;;6127607;23;21135;-78
2022/08/26 05:21:29;;;;;;;1.50;1.00;;;22.60;98.20;;;;;;6125692;23;20425;-77
2022/08/26 05:23:57;;;;;;;1.50;0.90;;;22.50;98.20;;;;;;6125365;23;20500;-79
2022/08/26 05:26:27;;;;;;;1.47;0.80;;;22.50;98.20;;;;;;6136362;23;20505;-79
2022/08/26 05:28:55;;;;;;;1.47;0.90;;;22.60;98.20;;;;;;6122896;23;20461;-79
2022/08/26 05:31:25;;;;;;;1.47;0.90;;;22.60;98.20;;;;;;6108196;23;20519;-78
2022/08/26 05:33:53;;;;;;;1.50;0.90;;;22.70;98.20;;;;;;6122606;23;20489;-79
2022/08/26 05:36:24;;;;;;;1.50;1.00;;;22.70;98.20;;;;;;6110408;23;20476;-80
2022/08/26 05:38:51;;;;;;;1.50;0.90;;;22.80;98.20;;;;;;6123543;23;20452;-78
2022/08/26 05:41:20;;;;;;;1.47;0.80;;;22.80;98.20;;;;;;6110798;23;20445;-78
2022/08/26 05:43:48;;;;;;;1.50;1.00;;;22.90;98.20;;;;;;6124939;23;20445;-77
2022/08/26 05:46:15;;;;;;;1.43;0.90;;;22.80;98.20;;;;;;6109303;23;20446;-79
2022/08/26 05:48:43;;;;;;;1.47;0.90;;;22.80;98.20;;;;;;6132295;23;20957;-78
2022/08/26 05:51:11;;;;;;;1.47;0.90;;;22.80;98.20;;;;;;6123292;23;20432;-78
2022/08/26 05:53:42;;;;;;;1.43;0.90;;;22.80;98.20;;;;;;6133907;23;20464;-82
2022/08/26 05:56:11;;;;;;;1.43;0.87;;;22.80;98.20;;;;;;6108944;23;20520;-81
2022/08/26 05:58:40;;;;;;;1.47;0.90;;;22.90;98.20;;;;;;6132275;23;20766;-79
2022/08/26 06:01:11;;;;;;;1.50;0.90;;;22.90;98.20;;;;;;6107361;23;20448;-79
2022/08/26 06:03:41;;;;;;;1.50;1.00;;;23.00;98.20;;;;;;6123415;23;20448;-77
2022/08/26 06:06:11;;;;;;;1.47;0.90;;;22.90;98.20;;;;;;6131577;23;20429;-77
2022/08/26 06:08:41;;;;;;;1.50;0.90;;;23.00;98.20;;;;;;6132073;23;20446;-78
2022/08/26 06:11:11;;;;;;;1.47;0.90;;;23.00;98.20;;;;;;6117327;23;20442;-77
2022/08/26 06:13:39;;;;;;;1.50;0.90;;;23.00;98.20;;;;;;6131131;23;20986;-79
2022/08/26 06:16:09;;;;;;;1.60;1.17;;;22.90;98.20;;;;;;6109213;23;21188;-79
2022/08/26 06:18:40;;;;;;;1.47;0.90;;;23.00;98.20;;;;;;6122653;23;20414;-77
2022/08/26 06:21:16;;;;;;;1.50;0.90;;;23.00;98.20;;;;;;6116719;23;20483;-75
2022/08/26 06:26:31;;;;;;;1.40;0.90;;;23.10;98.20;;;;;;6133973;23;20404;-78
2022/08/26 06:28:59;;;;;;;1.43;0.83;;;23.10;98.20;;;;;;6122927;23;20446;-77
2022/08/26 06:31:27;;;;;;;1.43;0.90;;;23.10;98.20;;;;;;6113709;23;20525;-78
2022/08/26 06:33:55;;;;;;;1.43;0.90;;;23.10;98.20;;;;;;6121687;23;20450;-77
2022/08/26 06:36:25;;;;;;;1.50;0.90;;;23.20;98.20;;;;;;6116566;23;20450;-77
2022/08/26 06:38:56;;;;;;;1.40;0.90;;;23.20;98.20;;;;;;6125014;23;20757;-78
2022/08/26 06:41:23;;;;;;;1.50;0.90;;;23.30;98.20;;;;;;6107279;23;20953;-78
2022/08/26 06:43:51;;;;;;;1.43;0.83;;;23.30;98.20;;;;;;6122137;23;20438;-80
2022/08/26 06:46:21;;;;;;;1.43;0.90;;;23.30;98.20;;;;;;6107814;23;21148;-78
2022/08/26 06:48:48;;;;;;;1.40;0.90;;;23.40;98.20;;;;;;6121731;23;20811;-77
2022/08/26 06:51:17;;;;;;;1.47;0.80;;;23.30;98.20;;;;;;6121612;23;20429;-77
2022/08/26 06:53:47;;;;;;;1.47;0.90;;;23.40;98.20;;;;;;6121778;23;20472;-79
2022/08/26 06:56:17;;;;;;;1.40;0.90;;;23.40;98.20;;;;;;6114781;23;20469;-78
2022/08/26 06:58:45;;;;;;;1.50;0.90;;;23.50;98.20;;;;;;6132059;23;20413;-80
2022/08/26 07:01:17;;;;;;;1.43;0.90;;;23.50;98.20;;;;;;6108685;23;21022;-76
2022/08/26 07:03:45;;;;;;;1.47;0.90;;;23.50;98.20;;;;;;6123425;23;20604;-79
2022/08/26 07:06:13;;;;;;;1.43;0.90;;;23.50;98.20;;;;;;6122331;23;20426;-77
2022/08/26 07:08:40;;;;;;;1.47;0.90;;;23.50;98.20;;;;;;6124059;23;20445;-80
2022/08/26 07:11:08;;;;;;;1.47;0.80;;;23.50;98.20;;;;;;6107797;23;20435;-78
2022/08/26 07:13:38;;;;;;;1.50;0.90;;;23.50;98.20;;;;;;6122117;23;21188;-79
2022/08/26 07:16:06;;;;;;;1.43;0.87;;;23.50;98.20;;;;;;6107251;23;20429;-77
2022/08/26 07:18:34;;;;;;;1.50;0.90;;;23.50;98.20;;;;;;6120729;23;20453;-81
2022/08/26 07:21:02;;;;;;;1.50;0.90;;;23.50;98.20;;;;;;6117708;23;20444;-80
2022/08/26 07:23:30;;;;;;;1.50;0.90;;;23.50;98.20;;;;;;6122464;23;20468;-79
2022/08/26 07:25:57;;;;;;;1.47;0.87;;;23.50;98.20;;;;;;6117445;23;20426;-76
2022/08/26 07:28:25;;;;;;;1.43;0.90;;;23.50;98.20;;;;;;6119975;23;20422;-77
2022/08/26 07:30:53;;;;;;;1.50;0.90;;;23.50;98.20;;;;;;6107979;23;20453;-76
2022/08/26 07:33:21;;;;;;;1.47;0.90;;;23.50;98.20;;;;;;6122702;23;20454;-75
2022/08/26 07:35:48;;;;;;;1.43;0.90;;;23.60;98.20;;;;;;6115991;23;20421;-76
2022/08/26 07:38:16;;;;;;;1.47;0.90;;;23.60;98.20;;;;;;6119368;23;20422;-77
2022/08/26 07:40:43;;;;;;;1.47;0.90;;;23.60;98.20;;;;;;6121971;23;20422;-76
2022/08/26 07:43:10;;;;;;;1.47;0.90;;;23.60;98.20;;;;;;6103326;23;20469;-77
2022/08/26 07:45:38;;;;;;;1.50;0.90;;;23.60;98.20;;;;;;6121023;23;20501;-76
2022/08/26 07:48:07;;;;;;;1.43;0.80;;;23.50;98.20;;;;;;6104098;23;20666;-76
2022/08/26 07:50:34;;;;;;;1.40;0.80;;;23.50;98.20;;;;;;6123484;23;20504;-76
2022/08/26 07:53:02;;;;;;;1.50;0.80;;;23.40;98.20;;;;;;6113568;23;20449;-76
2022/08/26 07:55:30;;;;;;;1.40;0.80;;;23.40;98.20;;;;;;6115444;23;20430;-76
2022/08/26 07:57:58;;;;;;;1.43;0.90;;;23.40;98.20;;;;;;6100494;23;20454;-76
2022/08/26 08:00:26;;;;;;;1.50;0.90;;;23.40;98.20;;;;;;6114204;23;21328;-78
2022/08/26 08:03:06;;;;;;;1.47;0.90;;;23.40;98.20;;;;;;6106183;23;20523;-77
2022/08/26 08:05:36;;;;;;;1.43;0.90;;;23.50;98.20;;;;;;6121799;23;21035;-81
2022/08/26 08:10:33;;;;;;;1.43;0.87;;;23.40;98.20;;;;;;6094400;23;20469;-78
2022/08/26 08:13:00;;;;;;;1.43;0.87;;;23.40;98.20;;;;;;6102944;23;20423;-78
2022/08/26 08:15:31;;;;;;;1.43;0.90;;;23.40;98.20;;;;;;6097612;23;20454;-78
2022/08/26 08:18:00;;;;;;;1.47;0.90;;;23.40;98.20;;;;;;6107052;23;20457;-77
2022/08/26 08:20:30;;;;;;;1.43;0.90;;;23.50;98.20;;;;;;6098362;23;20419;-78
2022/08/26 08:22:57;;;;;;;1.47;0.90;;;23.50;98.20;;;;;;6103451;23;20557;-76
2022/08/26 08:25:25;;;;;;;1.50;0.90;;;23.60;98.20;;;;;;6101153;23;20608;-77
2022/08/26 08:27:53;;;;;;;1.47;0.90;;;23.60;98.20;;;;;;6102697;23;20532;-76
2022/08/26 08:30:23;;;;;;;1.43;0.87;;;23.60;98.20;;;;;;6094078;23;20506;-78
2022/08/26 08:32:51;;;;;;;1.50;0.90;;;23.60;98.20;;;;;;6103150;23;20541;-76
2022/08/26 08:35:21;;;;;;;1.43;0.87;;;23.50;98.20;;;;;;6100537;23;20433;-77
2022/08/26 08:37:53;;;;;;;1.47;0.90;;;23.40;98.20;;;;;;6104918;23;20442;-77
2022/08/26 08:40:23;;;;;;;1.43;0.90;;;23.40;98.20;;;;;;6093005;23;20430;-77
2022/08/26 08:42:59;;;;;;;1.47;0.90;;;23.40;98.20;;;;;;6102641;23;20454;-76
2022/08/26 08:45:33;;;;;;;1.43;0.80;;;23.40;98.20;;;;;;6092097;23;20469;-79
2022/08/26 08:48:04;;;;;;;1.47;0.90;;;23.40;98.20;;;;;;6102913;23;20453;-78
2022/08/26 08:50:34;;;;;;;1.47;0.80;;;23.40;98.20;;;;;;6091999;23;20486;-78
2022/08/26 08:53:13;;;;;;;1.50;0.90;;;23.50;98.20;;;;;;6101833;23;20453;-78
2022/08/26 08:55:54;;;;;;;1.47;0.90;;;23.50;98.00;;;;;;6092504;23;20407;-78
2022/08/26 08:58:27;;;;;;;1.47;0.90;;;23.50;98.20;;;;;;6078643;23;20454;-79
2022/08/26 09:01:01;;;;;;;1.50;0.90;;;23.50;98.20;;;;;;6093040;23;20418;-78
2022/08/26 09:03:50;;;;;;;1.40;0.80;;;23.60;98.10;;;;;;6114244;23;20425;-76
2022/08/26 09:06:19;;;;;;;1.40;0.90;;;23.70;98.00;;;;;;6091943;23;20452;-78
2022/08/26 09:08:50;;;;;;;1.50;0.90;;;23.70;97.80;;;;;;6117073;23;20426;-77
2022/08/26 09:11:20;;;;;;;1.70;1.43;;;23.70;98.00;;;;;;6086246;23;20496;-77
2022/08/26 09:13:51;;;;;;;1.60;1.13;;;23.70;97.50;;;;;;6112106;23;20430;-77
2022/08/26 09:16:25;;;;;;;1.40;0.90;;;23.70;98.10;;;;;;6087296;23;20513;-78
2022/08/26 09:19:13;;;;;;;1.50;0.90;;;23.80;97.80;;;;;;6123447;23;20434;-78
2022/08/26 09:21:41;;;;;;;1.43;0.90;;;23.70;97.20;;;;;;6095086;23;20957;-78
2022/08/26 09:24:10;;;;;;;1.70;1.37;;;23.70;97.10;;;;;;6118546;23;20419;-79
2022/08/26 09:27:12;;;;;;;1.40;0.87;;;23.70;97.10;;;;;;6099822;23;20554;-79
2022/08/26 09:30:18;;;;;;;1.50;0.90;;;23.70;97.20;;;;;;6053955;23;20482;-79
2022/08/26 09:32:59;;;;;;;1.47;0.90;;;23.60;97.20;;;;;;6103870;23;20851;-79
2022/08/26 09:35:29;;;;;;;1.50;1.20;;;23.60;97.00;;;;;;6104248;23;20602;-79
2022/08/26 09:38:20;;;;;;;1.50;0.83;;;23.70;96.30;;;;;;6103908;23;20472;-80
2022/08/26 09:47:31;;;;;;;1.47;0.90;;;23.90;96.20;;;;;;6003757;23;20453;-79
2022/08/26 09:53:18;;;;;;;1.43;0.80;;;23.90;96.60;;;;;;6126446;23;20446;-78
2022/08/26 09:55:47;;;;;;;1.50;0.80;;;23.90;96.20;;;;;;6130674;23;20477;-78
2022/08/26 09:58:33;;;;;;;1.47;0.90;;;23.90;96.30;;;;;;6143358;23;20480;-76
2022/08/26 10:01:06;;;;;;;1.47;0.90;;;23.90;96.30;;;;;;6143056;23;20421;-77
2022/08/26 10:03:37;;;;;;;1.50;0.90;;;23.90;96.70;;;;;;6176392;23;20451;-78
2022/08/26 10:06:20;;;;;;;1.50;0.90;;;23.90;96.90;;;;;;6143338;23;21157;-78
2022/08/26 10:08:52;;;;;;;1.50;1.00;;;23.90;96.60;;;;;;6160863;23;20417;-76
2022/08/26 10:11:31;;;;;;;1.47;0.80;;;24.00;96.40;;;;;;6143806;23;20848;-77
2022/08/26 10:14:05;;;;;;;1.47;0.80;;;24.10;96.10;;;;;;6162697;23;20424;-77
2022/08/26 10:16:40;;;;;;;1.47;0.87;;;24.10;95.90;;;;;;6140348;23;20456;-77
2022/08/26 10:19:14;;;;;;;1.43;0.90;;;24.20;95.80;;;;;;6158044;23;20443;-77
2022/08/26 10:21:50;;;;;;;1.50;0.90;;;24.20;95.70;;;;;;6142381;23;20459;-78
2022/08/26 10:24:26;;;;;;;1.47;0.90;;;24.30;95.50;;;;;;6167439;23;20428;-78
2022/08/26 10:27:04;;;;;;;1.47;0.90;;;24.30;95.40;;;;;;6148071;23;20656;-78
2022/08/26 10:29:43;;;;;;;1.60;1.40;;;24.30;95.00;;;;;;6153902;23;20447;-77
2022/08/26 10:32:20;;;;;;;1.50;0.90;;;24.40;95.20;;;;;;6156445;23;20440;-78
2022/08/26 10:34:52;;;;;;;2.43;2.23;;;24.30;95.10;;;;;;6147887;23;20459;-78
2022/08/26 10:37:25;;;;;;;1.40;0.87;;;24.30;95.30;;;;;;6148898;23;20482;-78
2022/08/26 10:40:02;;;;;;;1.47;0.83;;;24.30;95.10;;;;;;6151705;23;20458;-78
